sensor_id;sensor_type;location;lat;lon;timestamp;pressure;altitude;pressure_sealevel;temperature;humidity
47330;BME280;33060;50.178;7.570;2022-12-10T00:01:39;96024.63;;;-0.64;89.44
47330;BME280;33060;50.178;7.570;2022-12-10T00:04:06;96023.06;;;-0.68;89.38
47330;BME280;33060;50.178;7.570;2022-12-10T00:06:35;96026.28;;;-0.63;89.57
47330;BME280;33060;50.178;7.570;2022-12-10T00:09:04;96034.13;;;-0.64;89.03
47330;BME280;33060;50.178;7.570;2022-12-10T00:11:32;96033.22;;;-0.63;88.64
47330;BME280;33060;50.178;7.570;2022-12-10T00:13:58;96031.63;;;-0.66;89.15
47330;BME280;33060;50.178;7.570;2022-12-10T00:16:27;96031.63;;;-0.66;89.67
47330;BME280;33060;50.178;7.570;2022-12-10T00:18:54;96029.41;;;-0.75;89.14
47330;BME280;33060;50.178;7.570;2022-12-10T00:21:27;96034.75;;;-0.79;88.54
47330;BME280;33060;50.178;7.570;2022-12-10T00:23:55;96029.47;;;-0.76;88.59
47330;BME280;33060;50.178;7.570;2022-12-10T00:26:40;96029.34;;;-0.73;89.28
47330;BME280;33060;50.178;7.570;2022-12-10T00:29:09;96030.25;;;-0.74;88.73
47330;BME280;33060;50.178;7.570;2022-12-10T00:31:38;96026.06;;;-0.77;89.84
47330;BME280;33060;50.178;7.570;2022-12-10T00:34:07;96029.41;;;-0.75;89.44
47330;BME280;33060;50.178;7.570;2022-12-10T00:36:38;96027.13;;;-0.82;88.73
47330;BME280;33060;50.178;7.570;2022-12-10T00:39:05;96035.09;;;-0.87;89.04
47330;BME280;33060;50.178;7.570;2022-12-10T00:41:32;96034.97;;;-0.84;89.56
47330;BME280;33060;50.178;7.570;2022-12-10T00:44:00;96034.00;;;-0.81;88.78
47330;BME280;33060;50.178;7.570;2022-12-10T00:46:28;96027.22;;;-0.84;89.25
47330;BME280;33060;50.178;7.570;2022-12-10T00:48:55;96027.22;;;-0.84;89.23
47330;BME280;33060;50.178;7.570;2022-12-10T00:51:23;96029.88;;;-0.86;88.60
47330;BME280;33060;50.178;7.570;2022-12-10T00:53:51;96029.13;;;-0.89;88.78
47330;BME280;33060;50.178;7.570;2022-12-10T00:56:21;96026.75;;;-0.94;90.09
47330;BME280;33060;50.178;7.570;2022-12-10T00:58:49;96028.59;;;-0.97;89.25
47330;BME280;33060;50.178;7.570;2022-12-10T01:03:54;96030.63;;;-1.04;90.71
47330;BME280;33060;50.178;7.570;2022-12-10T01:06:25;96036.69;;;-1.05;90.06
47330;BME280;33060;50.178;7.570;2022-12-10T01:08:54;96038.19;;;-0.99;90.52
47330;BME280;33060;50.178;7.570;2022-12-10T01:11:25;96036.38;;;-0.97;90.72
47330;BME280;33060;50.178;7.570;2022-12-10T01:13:52;96043.91;;;-0.91;90.05
47330;BME280;33060;50.178;7.570;2022-12-10T01:16:21;96042.28;;;-0.94;89.61
47330;BME280;33060;50.178;7.570;2022-12-10T01:18:51;96041.69;;;-1.00;89.09
47330;BME280;33060;50.178;7.570;2022-12-10T01:21:19;96042.44;;;-0.98;90.32
47330;BME280;33060;50.178;7.570;2022-12-10T01:23:49;96047.69;;;-1.00;89.66
47330;BME280;33060;50.178;7.570;2022-12-10T01:26:21;96049.50;;;-1.02;89.91
47330;BME280;33060;50.178;7.570;2022-12-10T01:28:48;96061.53;;;-1.01;89.25
47330;BME280;33060;50.178;7.570;2022-12-10T01:31:24;96051.97;;;-0.99;89.59
47330;BME280;33060;50.178;7.570;2022-12-10T01:33:51;96057.88;;;-0.95;89.09
47330;BME280;33060;50.178;7.570;2022-12-10T01:36:22;96067.13;;;-0.90;88.92
47330;BME280;33060;50.178;7.570;2022-12-10T01:38:50;96066.41;;;-0.93;88.30
47330;BME280;33060;50.178;7.570;2022-12-10T01:41:22;96085.13;;;-0.87;88.75
47330;BME280;33060;50.178;7.570;2022-12-10T01:44:03;96085.25;;;-0.90;88.22
47330;BME280;33060;50.178;7.570;2022-12-10T01:46:35;96080.31;;;-0.96;89.05
47330;BME280;33060;50.178;7.570;2022-12-10T01:49:11;96083.69;;;-0.94;89.03
47330;BME280;33060;50.178;7.570;2022-12-10T01:51:41;96087.88;;;-0.91;89.53
47330;BME280;33060;50.178;7.570;2022-12-10T01:54:12;96095.28;;;-0.82;90.00
47330;BME280;33060;50.178;7.570;2022-12-10T01:56:43;96078.84;;;-0.81;88.90
47330;BME280;33060;50.178;7.570;2022-12-10T01:59:11;96082.47;;;-0.85;89.30
47330;BME280;33060;50.178;7.570;2022-12-10T02:04:22;96086.84;;;-0.87;88.21
47330;BME280;33060;50.178;7.570;2022-12-10T02:09:50;96066.94;;;-0.85;89.53
47330;BME280;33060;50.178;7.570;2022-12-10T02:15:04;96076.47;;;-0.86;88.42
47330;BME280;33060;50.178;7.570;2022-12-10T02:17:55;96086.81;;;-0.86;88.48
47330;BME280;33060;50.178;7.570;2022-12-10T02:20:32;96073.13;;;-0.89;88.67
47330;BME280;33060;50.178;7.570;2022-12-10T02:23:15;96085.16;;;-0.88;88.03
47330;BME280;33060;50.178;7.570;2022-12-10T02:31:21;96076.88;;;-0.96;88.80
47330;BME280;33060;50.178;7.570;2022-12-10T02:33:53;96080.19;;;-0.93;88.35
47330;BME280;33060;50.178;7.570;2022-12-10T02:36:24;96084.78;;;-0.99;88.81
47330;BME280;33060;50.178;7.570;2022-12-10T02:38:54;96081.41;;;-1.01;88.47
47330;BME280;33060;50.178;7.570;2022-12-10T02:41:28;96079.00;;;-1.06;88.90
47330;BME280;33060;50.178;7.570;2022-12-10T02:43:59;96082.47;;;-1.07;88.88
47330;BME280;33060;50.178;7.570;2022-12-10T02:46:27;96084.16;;;-1.06;90.16
47330;BME280;33060;50.178;7.570;2022-12-10T02:49:01;96079.06;;;-1.07;89.48
47330;BME280;33060;50.178;7.570;2022-12-10T02:51:28;96085.28;;;-1.11;88.92
47330;BME280;33060;50.178;7.570;2022-12-10T02:54:04;96079.34;;;-1.15;89.05
47330;BME280;33060;50.178;7.570;2022-12-10T02:56:38;96080.56;;;-1.24;89.16
47330;BME280;33060;50.178;7.570;2022-12-10T02:59:27;96080.63;;;-1.25;90.70
47330;BME280;33060;50.178;7.570;2022-12-10T03:02:02;96081.06;;;-1.36;89.64
47330;BME280;33060;50.178;7.570;2022-12-10T03:07:27;96075.06;;;-1.60;90.10
47330;BME280;33060;50.178;7.570;2022-12-10T03:10:03;96088.47;;;-1.72;91.59
47330;BME280;33060;50.178;7.570;2022-12-10T03:12:45;96089.94;;;-1.88;90.61
47330;BME280;33060;50.178;7.570;2022-12-10T03:15:15;96090.34;;;-1.99;90.53
47330;BME280;33060;50.178;7.570;2022-12-10T03:17:44;96087.44;;;-2.15;89.67
47330;BME280;33060;50.178;7.570;2022-12-10T03:20:13;96085.13;;;-2.22;89.80
47330;BME280;33060;50.178;7.570;2022-12-10T03:22:43;96090.03;;;-2.40;89.92
47330;BME280;33060;50.178;7.570;2022-12-10T03:25:14;96091.88;;;-2.43;90.74
47330;BME280;33060;50.178;7.570;2022-12-10T03:27:45;96089.59;;;-2.52;89.83
47330;BME280;33060;50.178;7.570;2022-12-10T03:30:14;96081.19;;;-2.58;90.39
47330;BME280;33060;50.178;7.570;2022-12-10T03:32:42;96090.03;;;-2.65;91.29
47330;BME280;33060;50.178;7.570;2022-12-10T03:35:11;96083.84;;;-2.59;92.47
47330;BME280;33060;50.178;7.570;2022-12-10T03:37:39;96085.09;;;-2.46;93.26
47330;BME280;33060;50.178;7.570;2022-12-10T03:40:07;96082.75;;;-2.29;92.42
47330;BME280;33060;50.178;7.570;2022-12-10T03:42:36;96076.16;;;-2.12;93.86
47330;BME280;33060;50.178;7.570;2022-12-10T03:45:03;96078.19;;;-1.97;93.24
47330;BME280;33060;50.178;7.570;2022-12-10T03:47:30;96077.16;;;-1.93;93.94
47330;BME280;33060;50.178;7.570;2022-12-10T03:49:56;96074.78;;;-1.97;93.72
47330;BME280;33060;50.178;7.570;2022-12-10T03:52:23;96069.53;;;-1.96;93.67
47330;BME280;33060;50.178;7.570;2022-12-10T03:54:50;96072.06;;;-1.94;94.00
47330;BME280;33060;50.178;7.570;2022-12-10T03:57:16;96071.63;;;-1.82;95.27
47330;BME280;33060;50.178;7.570;2022-12-10T03:59:43;96068.22;;;-1.84;94.52
47330;BME280;33060;50.178;7.570;2022-12-10T04:02:10;96063.56;;;-1.75;94.14
47330;BME280;33060;50.178;7.570;2022-12-10T04:04:37;96073.75;;;-1.70;93.82
47330;BME280;33060;50.178;7.570;2022-12-10T04:07:03;96074.41;;;-1.65;94.44
47330;BME280;33060;50.178;7.570;2022-12-10T04:09:30;96073.63;;;-1.67;93.43
47330;BME280;33060;50.178;7.570;2022-12-10T04:11:58;96077.00;;;-1.65;93.27
47330;BME280;33060;50.178;7.570;2022-12-10T04:14:25;96074.72;;;-1.73;94.17
47330;BME280;33060;50.178;7.570;2022-12-10T04:17:12;96079.03;;;-1.73;94.66
47330;BME280;33060;50.178;7.570;2022-12-10T04:19:39;96078.91;;;-1.70;95.58
47330;BME280;33060;50.178;7.570;2022-12-10T04:22:05;96078.69;;;-1.64;96.10
47330;BME280;33060;50.178;7.570;2022-12-10T04:24:52;96081.28;;;-1.64;94.87
47330;BME280;33060;50.178;7.570;2022-12-10T04:27:38;96086.31;;;-1.61;94.33
47330;BME280;33060;50.178;7.570;2022-12-10T04:30:08;96088.00;;;-1.60;95.09
47330;BME280;33060;50.178;7.570;2022-12-10T04:32:36;96090.66;;;-1.61;94.61
47330;BME280;33060;50.178;7.570;2022-12-10T04:35:03;96093.91;;;-1.56;94.72
47330;BME280;33060;50.178;7.570;2022-12-10T04:37:30;96090.44;;;-1.55;95.97
47330;BME280;33060;50.178;7.570;2022-12-10T04:39:57;96087.56;;;-1.48;96.10
47330;BME280;33060;50.178;7.570;2022-12-10T04:42:23;96092.59;;;-1.45;95.09
47330;BME280;33060;50.178;7.570;2022-12-10T04:44:50;96098.97;;;-1.53;94.59
47330;BME280;33060;50.178;7.570;2022-12-10T04:47:17;96100.09;;;-1.60;94.73
47330;BME280;33060;50.178;7.570;2022-12-10T04:49:43;96103.50;;;-1.60;94.88
47330;BME280;33060;50.178;7.570;2022-12-10T04:52:12;96101.22;;;-1.67;94.81
47330;BME280;33060;50.178;7.570;2022-12-10T04:54:40;96097.72;;;-1.66;94.81
47330;BME280;33060;50.178;7.570;2022-12-10T04:57:08;96098.41;;;-1.61;96.54
47330;BME280;33060;50.178;7.570;2022-12-10T04:59:35;96091.56;;;-1.62;95.42
47330;BME280;33060;50.178;7.570;2022-12-10T05:02:04;96103.84;;;-1.69;94.41
47330;BME280;33060;50.178;7.570;2022-12-10T05:04:30;96100.50;;;-1.71;95.88
47330;BME280;33060;50.178;7.570;2022-12-10T05:06:57;96101.81;;;-1.61;96.20
47330;BME280;33060;50.178;7.570;2022-12-10T05:09:24;96102.31;;;-1.51;96.94
47330;BME280;33060;50.178;7.570;2022-12-10T05:11:51;96107.38;;;-1.48;96.13
47330;BME280;33060;50.178;7.570;2022-12-10T05:14:17;96112.50;;;-1.47;95.96
47330;BME280;33060;50.178;7.570;2022-12-10T05:16:44;96111.53;;;-1.44;96.41
47330;BME280;33060;50.178;7.570;2022-12-10T05:19:11;96116.53;;;-1.39;96.10
47330;BME280;33060;50.178;7.570;2022-12-10T05:21:38;96118.31;;;-1.42;95.60
47330;BME280;33060;50.178;7.570;2022-12-10T05:24:23;96117.41;;;-1.40;94.59
47330;BME280;33060;50.178;7.570;2022-12-10T05:26:51;96119.09;;;-1.39;93.38
47330;BME280;33060;50.178;7.570;2022-12-10T05:29:18;96123.63;;;-1.45;93.31
47330;BME280;33060;50.178;7.570;2022-12-10T05:31:45;96120.53;;;-1.54;92.97
47330;BME280;33060;50.178;7.570;2022-12-10T05:34:12;96116.38;;;-1.58;93.30
47330;BME280;33060;50.178;7.570;2022-12-10T05:36:39;96116.16;;;-1.52;93.39
47330;BME280;33060;50.178;7.570;2022-12-10T05:39:06;96123.84;;;-1.51;94.00
47330;BME280;33060;50.178;7.570;2022-12-10T05:41:36;96123.84;;;-1.51;92.94
47330;BME280;33060;50.178;7.570;2022-12-10T05:44:03;96129.03;;;-1.51;93.42
47330;BME280;33060;50.178;7.570;2022-12-10T05:46:31;96124.81;;;-1.53;93.11
47330;BME280;33060;50.178;7.570;2022-12-10T05:49:00;96129.09;;;-1.52;92.84
47330;BME280;33060;50.178;7.570;2022-12-10T05:51:31;96129.09;;;-1.52;93.30
47330;BME280;33060;50.178;7.570;2022-12-10T05:53:59;96129.94;;;-1.52;93.13
47330;BME280;33060;50.178;7.570;2022-12-10T05:56:25;96136.84;;;-1.52;92.67
47330;BME280;33060;50.178;7.570;2022-12-10T05:58:55;96136.78;;;-1.51;92.88
47330;BME280;33060;50.178;7.570;2022-12-10T06:01:26;96129.97;;;-1.53;92.44
47330;BME280;33060;50.178;7.570;2022-12-10T06:03:54;96131.81;;;-1.57;93.22
47330;BME280;33060;50.178;7.570;2022-12-10T06:06:28;96125.72;;;-1.54;93.42
47330;BME280;33060;50.178;7.570;2022-12-10T06:08:56;96141.94;;;-1.51;92.10
47330;BME280;33060;50.178;7.570;2022-12-10T06:11:23;96139.50;;;-1.54;91.79
47330;BME280;33060;50.178;7.570;2022-12-10T06:13:50;96146.47;;;-1.56;92.96
47330;BME280;33060;50.178;7.570;2022-12-10T06:16:22;96142.16;;;-1.57;92.84
47330;BME280;33060;50.178;7.570;2022-12-10T06:18:50;96149.84;;;-1.54;93.09
47330;BME280;33060;50.178;7.570;2022-12-10T06:21:17;96146.22;;;-1.50;93.06
47330;BME280;33060;50.178;7.570;2022-12-10T06:23:45;96148.81;;;-1.50;92.22
47330;BME280;33060;50.178;7.570;2022-12-10T06:26:18;96144.53;;;-1.51;91.89
47330;BME280;33060;50.178;7.570;2022-12-10T06:28:46;96147.06;;;-1.49;92.87
47330;BME280;33060;50.178;7.570;2022-12-10T06:31:13;96160.88;;;-1.50;92.40
47330;BME280;33060;50.178;7.570;2022-12-10T06:33:41;96149.72;;;-1.51;91.78
47330;BME280;33060;50.178;7.570;2022-12-10T06:36:09;96158.50;;;-1.55;91.45
47330;BME280;33060;50.178;7.570;2022-12-10T06:38:36;96161.00;;;-1.53;92.49
47330;BME280;33060;50.178;7.570;2022-12-10T06:41:08;96163.66;;;-1.55;91.01
47330;BME280;33060;50.178;7.570;2022-12-10T06:43:35;96159.53;;;-1.60;91.40
47330;BME280;33060;50.178;7.570;2022-12-10T06:46:06;96158.50;;;-1.55;92.20
47330;BME280;33060;50.178;7.570;2022-12-10T06:48:34;96169.75;;;-1.57;91.65
47330;BME280;33060;50.178;7.570;2022-12-10T06:51:02;96174.00;;;-1.55;91.33
47330;BME280;33060;50.178;7.570;2022-12-10T06:53:30;96186.94;;;-1.55;90.55
47330;BME280;33060;50.178;7.570;2022-12-10T06:55:59;96180.16;;;-1.59;90.94
47330;BME280;33060;50.178;7.570;2022-12-10T06:58:30;96182.75;;;-1.59;90.11
47330;BME280;33060;50.178;7.570;2022-12-10T07:01:07;96187.66;;;-1.51;90.29
47330;BME280;33060;50.178;7.570;2022-12-10T07:03:34;96185.97;;;-1.52;89.94
47330;BME280;33060;50.178;7.570;2022-12-10T07:06:01;96194.97;;;-1.62;89.85
47330;BME280;33060;50.178;7.570;2022-12-10T07:08:29;96191.53;;;-1.63;89.65
47330;BME280;33060;50.178;7.570;2022-12-10T07:10:55;96191.19;;;-1.54;90.33
47330;BME280;33060;50.178;7.570;2022-12-10T07:13:23;96189.28;;;-1.49;89.56
47330;BME280;33060;50.178;7.570;2022-12-10T07:15:56;96195.25;;;-1.47;89.41
47330;BME280;33060;50.178;7.570;2022-12-10T07:18:23;96198.50;;;-1.42;89.64
47330;BME280;33060;50.178;7.570;2022-12-10T07:20:50;96189.06;;;-1.43;88.86
47330;BME280;33060;50.178;7.570;2022-12-10T07:23:17;96195.91;;;-1.42;89.07
47330;BME280;33060;50.178;7.570;2022-12-10T07:25:45;96199.97;;;-1.34;89.78
47330;BME280;33060;50.178;7.570;2022-12-10T07:28:12;96202.63;;;-1.36;88.86
47330;BME280;33060;50.178;7.570;2022-12-10T07:30:38;96208.00;;;-1.42;88.58
47330;BME280;33060;50.178;7.570;2022-12-10T07:33:05;96207.22;;;-1.44;87.81
47330;BME280;33060;50.178;7.570;2022-12-10T07:35:32;96215.53;;;-1.36;88.47
47330;BME280;33060;50.178;7.570;2022-12-10T07:37:58;96207.28;;;-1.46;87.64
47330;BME280;33060;50.178;7.570;2022-12-10T07:40:25;96202.75;;;-1.40;88.36
47330;BME280;33060;50.178;7.570;2022-12-10T07:42:51;96211.09;;;-1.32;88.63
47330;BME280;33060;50.178;7.570;2022-12-10T07:45:18;96210.03;;;-1.27;88.52
47330;BME280;33060;50.178;7.570;2022-12-10T07:47:45;96211.91;;;-1.30;87.61
47330;BME280;33060;50.178;7.570;2022-12-10T07:50:12;96205.25;;;-1.37;88.20
47330;BME280;33060;50.178;7.570;2022-12-10T07:52:38;96216.25;;;-1.32;87.49
47330;BME280;33060;50.178;7.570;2022-12-10T07:55:05;96209.25;;;-1.29;87.17
47330;BME280;33060;50.178;7.570;2022-12-10T07:57:32;96212.63;;;-1.27;87.22
47330;BME280;33060;50.178;7.570;2022-12-10T07:59:59;96215.47;;;-1.34;87.00
47330;BME280;33060;50.178;7.570;2022-12-10T08:02:25;96209.25;;;-1.29;86.61
47330;BME280;33060;50.178;7.570;2022-12-10T08:04:52;96215.31;;;-1.30;85.93
47330;BME280;33060;50.178;7.570;2022-12-10T08:07:19;96218.56;;;-1.25;87.31
47330;BME280;33060;50.178;7.570;2022-12-10T08:09:45;96211.00;;;-1.29;86.24
47330;BME280;33060;50.178;7.570;2022-12-10T08:12:12;96220.25;;;-1.24;85.94
47330;BME280;33060;50.178;7.570;2022-12-10T08:14:39;96220.09;;;-1.19;85.61
47330;BME280;33060;50.178;7.570;2022-12-10T08:17:05;96225.16;;;-1.16;85.98
47330;BME280;33060;50.178;7.570;2022-12-10T08:19:32;96223.06;;;-1.06;84.80
47330;BME280;33060;50.178;7.570;2022-12-10T08:21:59;96226.69;;;-1.10;85.19
47330;BME280;33060;50.178;7.570;2022-12-10T08:24:25;96229.91;;;-1.05;85.94
47330;BME280;33060;50.178;7.570;2022-12-10T08:26:52;96236.69;;;-1.01;85.63
47330;BME280;33060;50.178;7.570;2022-12-10T08:29:18;96232.13;;;-0.95;85.18
47330;BME280;33060;50.178;7.570;2022-12-10T08:31:45;96240.31;;;-0.83;85.40
47330;BME280;33060;50.178;7.570;2022-12-10T08:34:16;96235.00;;;-0.80;84.71
47330;BME280;33060;50.178;7.570;2022-12-10T08:36:43;96237.94;;;-0.90;84.58
47330;BME280;33060;50.178;7.570;2022-12-10T08:39:09;96243.75;;;-0.83;84.19
47330;BME280;33060;50.178;7.570;2022-12-10T08:41:36;96245.28;;;-0.79;84.59
47330;BME280;33060;50.178;7.570;2022-12-10T08:44:03;96241.63;;;-0.73;85.03
47330;BME280;33060;50.178;7.570;2022-12-10T08:46:30;96248.63;;;-0.75;84.30
47330;BME280;33060;50.178;7.570;2022-12-10T08:48:56;96244.94;;;-0.70;83.80
47330;BME280;33060;50.178;7.570;2022-12-10T08:51:23;96245.50;;;-0.62;84.76
47330;BME280;33060;50.178;7.570;2022-12-10T08:53:50;96253.03;;;-0.55;83.93
47330;BME280;33060;50.178;7.570;2022-12-10T08:56:16;96250.19;;;-0.71;83.99
47330;BME280;33060;50.178;7.570;2022-12-10T08:58:43;96260.31;;;-0.65;84.70
47330;BME280;33060;50.178;7.570;2022-12-10T09:01:13;96262.78;;;-0.62;84.37
47330;BME280;33060;50.178;7.570;2022-12-10T09:03:40;96261.34;;;-0.69;84.01
47330;BME280;33060;50.178;7.570;2022-12-10T09:06:13;96261.94;;;-0.63;83.55
47330;BME280;33060;50.178;7.570;2022-12-10T09:08:40;96267.72;;;-0.56;83.90
47330;BME280;33060;50.178;7.570;2022-12-10T09:11:15;96270.31;;;-0.56;83.09
47330;BME280;33060;50.178;7.570;2022-12-10T09:13:42;96274.81;;;-0.61;83.16
47330;BME280;33060;50.178;7.570;2022-12-10T09:16:09;96277.31;;;-0.58;82.51
47330;BME280;33060;50.178;7.570;2022-12-10T09:18:37;96274.75;;;-0.81;82.25
47330;BME280;33060;50.178;7.570;2022-12-10T09:21:05;96275.84;;;-0.65;82.37
47330;BME280;33060;50.178;7.570;2022-12-10T09:23:32;96279.91;;;-0.58;82.46
47330;BME280;33060;50.178;7.570;2022-12-10T09:26:00;96280.91;;;-0.62;81.81
47330;BME280;33060;50.178;7.570;2022-12-10T09:28:27;96284.09;;;-0.77;81.38
47330;BME280;33060;50.178;7.570;2022-12-10T09:31:01;96279.63;;;-0.74;83.02
47330;BME280;33060;50.178;7.570;2022-12-10T09:33:28;96287.34;;;-0.72;80.28
47330;BME280;33060;50.178;7.570;2022-12-10T09:35:54;96282.38;;;-0.78;80.11
47330;BME280;33060;50.178;7.570;2022-12-10T09:38:22;96283.19;;;-0.76;81.06
47330;BME280;33060;50.178;7.570;2022-12-10T09:44:26;96286.22;;;-0.65;81.39
47330;BME280;33060;50.178;7.570;2022-12-10T09:46:58;96271.94;;;-0.75;81.60
47330;BME280;33060;50.178;7.570;2022-12-10T09:52:16;96283.97;;;-0.74;78.37
47330;BME280;33060;50.178;7.570;2022-12-10T09:54:55;96282.94;;;-0.70;80.06
47330;BME280;33060;50.178;7.570;2022-12-10T09:57:28;96285.19;;;-0.61;80.03
47330;BME280;33060;50.178;7.570;2022-12-10T09:59:55;96283.94;;;-0.51;80.46
47330;BME280;33060;50.178;7.570;2022-12-10T10:02:29;96271.69;;;-0.47;79.36
47330;BME280;33060;50.178;7.570;2022-12-10T10:05:10;96284.59;;;-0.46;79.08
47330;BME280;33060;50.178;7.570;2022-12-10T10:07:47;96280.78;;;-0.37;80.21
47330;BME280;33060;50.178;7.570;2022-12-10T10:10:33;96277.59;;;-0.44;79.42
47330;BME280;33060;50.178;7.570;2022-12-10T10:15:33;96283.97;;;-0.52;78.89
47330;BME280;33060;50.178;7.570;2022-12-10T10:18:29;96275.56;;;-0.58;80.23
47330;BME280;33060;50.178;7.570;2022-12-10T10:21:00;96275.06;;;-0.45;79.12
47330;BME280;33060;50.178;7.570;2022-12-10T10:23:28;96277.25;;;-0.35;78.18
47330;BME280;33060;50.178;7.570;2022-12-10T10:25:56;96277.91;;;-0.30;78.84
47330;BME280;33060;50.178;7.570;2022-12-10T10:28:23;96289.47;;;-0.38;77.68
47330;BME280;33060;50.178;7.570;2022-12-10T10:30:52;96285.91;;;-0.36;77.68
47330;BME280;33060;50.178;7.570;2022-12-10T10:33:20;96287.50;;;-0.32;78.11
47330;BME280;33060;50.178;7.570;2022-12-10T10:35:49;96284.41;;;-0.19;78.03
47330;BME280;33060;50.178;7.570;2022-12-10T10:38:25;96286.69;;;-0.12;78.79
47330;BME280;33060;50.178;7.570;2022-12-10T10:40:55;96280.59;;;-0.11;79.37
47330;BME280;33060;50.178;7.570;2022-12-10T10:43:25;96275.94;;;-0.03;78.48
47330;BME280;33060;50.178;7.570;2022-12-10T10:48:41;96278.75;;;-0.07;78.40
47330;BME280;33060;50.178;7.570;2022-12-10T10:59:27;96277.22;;;0.09;77.08
47330;BME280;33060;50.178;7.570;2022-12-10T11:01:55;96277.22;;;0.09;77.16
47330;BME280;33060;50.178;7.570;2022-12-10T11:04:28;96274.50;;;-0.10;76.71
47330;BME280;33060;50.178;7.570;2022-12-10T11:06:55;96285.38;;;-0.22;78.25
47330;BME280;33060;50.178;7.570;2022-12-10T11:09:29;96272.97;;;-0.14;78.44
47330;BME280;33060;50.178;7.570;2022-12-10T11:12:05;96277.22;;;-0.13;78.22
47330;BME280;33060;50.178;7.570;2022-12-10T11:14:38;96282.94;;;-0.05;78.70
47330;BME280;33060;50.178;7.570;2022-12-10T11:20:12;96296.22;;;-0.12;78.95
47330;BME280;33060;50.178;7.570;2022-12-10T11:22:49;96291.81;;;-0.10;78.86
47330;BME280;33060;50.178;7.570;2022-12-10T11:25:16;96293.63;;;-0.12;78.54
47330;BME280;33060;50.178;7.570;2022-12-10T11:30:25;96282.56;;;0.05;78.54
47330;BME280;33060;50.178;7.570;2022-12-10T11:41:01;96280.50;;;-0.08;77.29
47330;BME280;33060;50.178;7.570;2022-12-10T11:43:40;96286.91;;;-0.16;78.53
47330;BME280;33060;50.178;7.570;2022-12-10T11:51:48;96297.44;;;-0.43;78.17
47330;BME280;33060;50.178;7.570;2022-12-10T11:54:46;96293.59;;;-0.33;78.40
47330;BME280;33060;50.178;7.570;2022-12-10T11:57:40;96292.44;;;-0.25;78.10
47330;BME280;33060;50.178;7.570;2022-12-10T12:00:24;96294.91;;;-0.22;78.75
47330;BME280;33060;50.178;7.570;2022-12-10T12:03:23;96292.72;;;-0.11;78.17
47330;BME280;33060;50.178;7.570;2022-12-10T12:14:36;96296.34;;;-0.15;79.17
47330;BME280;33060;50.178;7.570;2022-12-10T12:17:28;96296.44;;;-0.18;79.02
47330;BME280;33060;50.178;7.570;2022-12-10T12:20:05;96300.75;;;-0.17;79.82
47330;BME280;33060;50.178;7.570;2022-12-10T12:22:43;96296.41;;;-0.17;79.79
47330;BME280;33060;50.178;7.570;2022-12-10T12:25:16;96296.97;;;-0.09;80.08
47330;BME280;33060;50.178;7.570;2022-12-10T12:27:52;96296.41;;;-0.17;78.30
47330;BME280;33060;50.178;7.570;2022-12-10T12:30:22;96294.00;;;-0.21;78.36
47330;BME280;33060;50.178;7.570;2022-12-10T12:33:04;96296.03;;;-0.30;78.16
47330;BME280;33060;50.178;7.570;2022-12-10T12:35:43;96300.00;;;-0.21;78.26
47330;BME280;33060;50.178;7.570;2022-12-10T12:38:37;96297.84;;;-0.32;76.42
47330;BME280;33060;50.178;7.570;2022-12-10T12:41:26;96306.09;;;-0.44;77.39
47330;BME280;33060;50.178;7.570;2022-12-10T12:46:37;96316.22;;;-0.38;77.21
47330;BME280;33060;50.178;7.570;2022-12-10T12:49:28;96314.00;;;-0.47;78.06
47330;BME280;33060;50.178;7.570;2022-12-10T12:54:29;96311.53;;;-0.28;77.98
47330;BME280;33060;50.178;7.570;2022-12-10T12:59:50;96311.28;;;-0.22;78.78
47330;BME280;33060;50.178;7.570;2022-12-10T13:02:21;96312.06;;;-0.20;79.34
47330;BME280;33060;50.178;7.570;2022-12-10T13:04:51;96313.75;;;-0.19;79.07
47330;BME280;33060;50.178;7.570;2022-12-10T13:20:33;96314.56;;;-0.17;78.32
47330;BME280;33060;50.178;7.570;2022-12-10T13:23:08;96316.03;;;-0.11;77.88
47330;BME280;33060;50.178;7.570;2022-12-10T13:34:22;96329.19;;;-0.16;76.74
47330;BME280;33060;50.178;7.570;2022-12-10T13:39:32;96332.31;;;-0.30;76.91
47330;BME280;33060;50.178;7.570;2022-12-10T13:47:52;96334.06;;;-0.52;77.05
47330;BME280;33060;50.178;7.570;2022-12-10T13:50:35;96340.09;;;-0.51;78.38
47330;BME280;33060;50.178;7.570;2022-12-10T13:59:03;96349.97;;;-0.39;79.00
47330;BME280;33060;50.178;7.570;2022-12-10T14:01:56;96352.41;;;-0.58;75.53
47330;BME280;33060;50.178;7.570;2022-12-10T14:05:07;96363.44;;;-0.76;75.86
47330;BME280;33060;50.178;7.570;2022-12-10T14:07:39;96365.06;;;-0.74;77.38
47330;BME280;33060;50.178;7.570;2022-12-10T14:10:16;96369.19;;;-0.68;77.56
47330;BME280;33060;50.178;7.570;2022-12-10T14:12:44;96366.47;;;-0.65;76.52
47330;BME280;33060;50.178;7.570;2022-12-10T14:15:20;96370.25;;;-0.74;77.00
47330;BME280;33060;50.178;7.570;2022-12-10T14:17:50;96377.75;;;-0.66;78.13
47330;BME280;33060;50.178;7.570;2022-12-10T14:20:23;96377.19;;;-0.74;77.41
47330;BME280;33060;50.178;7.570;2022-12-10T14:22:52;96368.56;;;-0.75;77.75
47330;BME280;33060;50.178;7.570;2022-12-10T14:25:22;96375.59;;;-0.78;77.76
47330;BME280;33060;50.178;7.570;2022-12-10T14:27:50;96378.16;;;-0.78;79.12
47330;BME280;33060;50.178;7.570;2022-12-10T14:30:21;96376.50;;;-0.79;78.66
47330;BME280;33060;50.178;7.570;2022-12-10T14:32:49;96371.66;;;-0.89;78.10
47330;BME280;33060;50.178;7.570;2022-12-10T14:35:21;96378.28;;;-0.81;78.83
47330;BME280;33060;50.178;7.570;2022-12-10T14:37:52;96374.94;;;-0.83;78.51
47330;BME280;33060;50.178;7.570;2022-12-10T14:40:27;96386.13;;;-0.83;79.50
47330;BME280;33060;50.178;7.570;2022-12-10T14:43:05;96388.84;;;-0.86;78.70
47330;BME280;33060;50.178;7.570;2022-12-10T14:45:44;96387.81;;;-0.82;79.19
47330;BME280;33060;50.178;7.570;2022-12-10T14:48:12;96388.00;;;-0.87;79.10
47330;BME280;33060;50.178;7.570;2022-12-10T14:50:39;96389.56;;;-0.82;78.57
47330;BME280;33060;50.178;7.570;2022-12-10T14:53:16;96390.66;;;-0.90;78.79
47330;BME280;33060;50.178;7.570;2022-12-10T14:55:49;96387.41;;;-0.95;79.63
47330;BME280;33060;50.178;7.570;2022-12-10T14:58:26;96388.41;;;-0.99;79.44
47330;BME280;33060;50.178;7.570;2022-12-10T15:00:54;96392.16;;;-1.07;78.92
47330;BME280;33060;50.178;7.570;2022-12-10T15:03:30;96392.16;;;-1.07;79.17
47330;BME280;33060;50.178;7.570;2022-12-10T15:06:00;96382.66;;;-1.07;80.56
47330;BME280;33060;50.178;7.570;2022-12-10T15:08:28;96384.91;;;-0.98;80.21
47330;BME280;33060;50.178;7.570;2022-12-10T15:10:58;96390.00;;;-0.95;80.33